createdAt,value
2023-03-26T00:00:55.907Z,10.45
2023-03-26T00:03:50.849Z,10.49
2023-03-26T00:06:42.657Z,10.30
2023-03-26T00:09:33.447Z,10.25
2023-03-26T00:12:28.363Z,10.26
2023-03-26T00:15:16.685Z,10.33
2023-03-26T00:18:03.441Z,10.37
2023-03-26T00:20:53.238Z,10.31
2023-03-26T00:23:41.491Z,10.22
2023-03-26T00:26:28.818Z,10.15
2023-03-26T00:29:17.241Z,9.94
2023-03-26T00:32:10.986Z,9.88
2023-03-26T00:35:03.038Z,9.83
2023-03-26T00:37:52.719Z,9.75
2023-03-26T00:40:39.170Z,9.75
2023-03-26T00:43:26.794Z,9.76
2023-03-26T00:46:13.798Z,9.78
2023-03-26T00:49:05.252Z,9.74
2023-03-26T00:51:53.096Z,9.72
2023-03-26T00:54:43.794Z,9.74
2023-03-26T00:57:35.895Z,9.72
2023-03-26T01:00:37.892Z,9.79
2023-03-26T01:03:28.283Z,9.66
2023-03-26T01:06:22.668Z,9.69
2023-03-26T01:09:17.645Z,9.74
2023-03-26T01:12:06.012Z,9.74
2023-03-26T01:14:56.793Z,9.76
2023-03-26T01:17:44.616Z,9.79
2023-03-26T01:20:36.802Z,9.80
2023-03-26T01:23:37.108Z,9.72
2023-03-26T01:26:47.316Z,9.81
2023-03-26T01:29:41.583Z,9.85
2023-03-26T01:32:49.765Z,9.80
2023-03-26T01:35:50.468Z,9.74
2023-03-26T01:38:49.594Z,9.79
2023-03-26T01:41:48.199Z,9.85
2023-03-26T01:44:44.327Z,9.83
2023-03-26T01:47:33.511Z,9.81
2023-03-26T01:50:22.164Z,9.80
2023-03-26T01:53:13.599Z,9.76
2023-03-26T01:56:14.577Z,9.74
2023-03-26T01:59:24.545Z,9.73
2023-03-26T02:02:16.577Z,9.65
2023-03-26T02:05:15.616Z,9.70
2023-03-26T02:08:16.249Z,9.65
2023-03-26T02:11:05.428Z,9.63
2023-03-26T02:13:54.597Z,9.58
2023-03-26T02:16:48.090Z,9.52
2023-03-26T02:19:37.799Z,9.35
2023-03-26T02:22:23.790Z,9.39
2023-03-26T02:25:13.854Z,9.27
2023-03-26T02:28:03.109Z,9.26
2023-03-26T02:30:59.870Z,9.28
2023-03-26T02:33:52.553Z,9.14
2023-03-26T02:36:41.515Z,9.09
2023-03-26T02:39:32.415Z,9.04
2023-03-26T02:42:18.153Z,8.97
2023-03-26T02:45:10.549Z,8.74
2023-03-26T02:48:00.056Z,8.80
2023-03-26T02:50:55.844Z,8.76
2023-03-26T02:53:44.277Z,8.65
2023-03-26T02:56:33.572Z,8.69
2023-03-26T02:59:22.482Z,8.69
2023-03-26T03:02:16.560Z,8.73
2023-03-26T03:05:09.326Z,8.65
2023-03-26T03:08:00.761Z,8.63
2023-03-26T03:11:01.530Z,8.51
2023-03-26T03:13:48.259Z,8.48
2023-03-26T03:16:34.327Z,8.36
2023-03-26T03:19:21.554Z,8.45
2023-03-26T03:22:09.437Z,8.42
2023-03-26T03:25:01.106Z,8.39
2023-03-26T03:27:49.715Z,8.39
2023-03-26T03:30:37.721Z,8.49
2023-03-26T03:33:23.955Z,8.55
2023-03-26T03:36:20.922Z,8.61
2023-03-26T03:39:11.100Z,8.68
2023-03-26T03:42:03.349Z,8.71
2023-03-26T03:44:54.412Z,8.56
2023-03-26T03:47:41.349Z,8.42
2023-03-26T03:50:30.062Z,8.22
2023-03-26T03:53:22.701Z,8.29
2023-03-26T03:56:15.199Z,8.20
2023-03-26T03:59:08.548Z,8.22
2023-03-26T04:01:55.702Z,8.23
2023-03-26T04:04:44.715Z,8.25
2023-03-26T04:07:34.223Z,8.28
2023-03-26T04:10:23.478Z,8.49
2023-03-26T04:13:11.042Z,8.63
2023-03-26T04:16:03.586Z,8.72
2023-03-26T04:18:52.609Z,8.91
2023-03-26T04:21:44.533Z,8.82
2023-03-26T04:24:36.560Z,8.91
2023-03-26T04:27:26.496Z,8.97
2023-03-26T04:30:22.272Z,9.09
2023-03-26T04:33:17.222Z,9.15
2023-03-26T04:36:08.889Z,9.12
2023-03-26T04:38:57.359Z,9.14
2023-03-26T04:41:46.085Z,9.27
2023-03-26T04:44:37.038Z,9.25
2023-03-26T04:47:27.534Z,9.25
2023-03-26T04:50:18.805Z,9.31
2023-03-26T04:53:06.592Z,9.40
2023-03-26T04:56:02.429Z,9.40
2023-03-26T04:58:52.684Z,9.34
2023-03-26T05:01:42.742Z,9.44
2023-03-26T05:04:32.916Z,9.38
2023-03-26T05:07:27.626Z,9.31
2023-03-26T05:10:22.149Z,9.25
2023-03-26T05:13:10.602Z,9.14
2023-03-26T05:15:57.338Z,9.11
2023-03-26T05:18:49.986Z,9.07
2023-03-26T05:21:36.283Z,9.05
2023-03-26T05:24:28.610Z,9.18
2023-03-26T05:27:18.712Z,9.20
2023-03-26T05:30:07.566Z,9.24
2023-03-26T05:32:55.017Z,9.28
2023-03-26T05:35:45.830Z,9.38
2023-03-26T05:38:34.333Z,9.51
2023-03-26T05:41:24.689Z,9.60
2023-03-26T05:44:18.664Z,9.68
2023-03-26T05:47:05.500Z,9.97
2023-03-26T05:49:55.833Z,10.23
2023-03-26T05:52:43.869Z,10.48
2023-03-26T05:55:33.285Z,10.52
2023-03-26T05:58:26.401Z,10.64
2023-03-26T06:01:18.491Z,10.78
2023-03-26T06:04:09.947Z,11.07
2023-03-26T06:06:58.144Z,11.23
2023-03-26T06:09:48.775Z,12.72
2023-03-26T06:12:39.765Z,15.80
2023-03-26T06:15:29.052Z,18.81
2023-03-26T06:18:19.171Z,20.86
2023-03-26T06:21:11.078Z,22.74
2023-03-26T06:23:59.847Z,23.46
2023-03-26T06:26:50.184Z,25.28
2023-03-26T06:29:42.076Z,26.93
2023-03-26T06:32:33.654Z,28.62
2023-03-26T06:35:21.286Z,29.94
2023-03-26T06:38:10.589Z,29.81
2023-03-26T06:41:03.674Z,28.80
2023-03-26T06:43:52.062Z,29.96
2023-03-26T06:46:44.309Z,32.64
2023-03-26T06:49:35.108Z,34.66
2023-03-26T06:52:24.598Z,35.28
2023-03-26T06:55:13.860Z,35.08
2023-03-26T06:58:04.135Z,36.96
2023-03-26T07:00:56.892Z,37.56
2023-03-26T07:03:46.188Z,36.43
2023-03-26T07:06:39.579Z,35.93
2023-03-26T07:09:27.891Z,36.77
2023-03-26T07:12:16.693Z,37.32
2023-03-26T07:15:04.980Z,37.65
2023-03-26T07:17:53.462Z,37.34
2023-03-26T07:20:44.325Z,38.67
2023-03-26T07:23:35.534Z,38.78
2023-03-26T07:26:35.122Z,38.17
2023-03-26T07:29:29.752Z,39.59
2023-03-26T07:32:24.746Z,38.67
2023-03-26T07:35:17.874Z,40.14
2023-03-26T07:38:25.205Z,40.79
2023-03-26T07:41:20.492Z,40.12
2023-03-26T07:44:33.041Z,40.66
2023-03-26T07:47:33.189Z,41.68
2023-03-26T07:50:22.869Z,41.19
2023-03-26T07:53:10.630Z,41.29
2023-03-26T07:56:08.808Z,41.78
2023-03-26T07:59:12.483Z,41.80
2023-03-26T08:02:23.872Z,42.49
2023-03-26T08:05:23.730Z,40.33
2023-03-26T08:08:23.670Z,41.33
2023-03-26T08:11:20.397Z,41.06
2023-03-26T08:14:35.505Z,42.91
2023-03-26T08:17:38.101Z,42.35
2023-03-26T08:20:36.914Z,42.01
2023-03-26T08:23:35.849Z,42.35
2023-03-26T08:26:49.202Z,42.15
2023-03-26T08:29:48.305Z,42.55
2023-03-26T08:32:40.180Z,42.23
2023-03-26T08:35:28.411Z,42.74
2023-03-26T08:38:20.447Z,43.47
2023-03-26T08:41:39.659Z,41.92
2023-03-26T08:45:18.738Z,45.00
2023-03-26T08:48:44.942Z,45.57
2023-03-26T08:52:08.705Z,44.33
2023-03-26T08:55:26.486Z,45.66
2023-03-26T08:59:01.662Z,46.17
2023-03-26T09:02:21.061Z,46.38
2023-03-26T09:05:35.388Z,43.72
2023-03-26T09:09:19.322Z,43.85
2023-03-26T09:12:53.865Z,39.82
2023-03-26T09:16:25.355Z,42.00
2023-03-26T09:19:40.892Z,37.04
2023-03-26T09:22:59.125Z,38.99
2023-03-26T09:26:07.834Z,34.14
2023-03-26T09:29:24.698Z,36.81
2023-03-26T09:32:53.390Z,41.68
2023-03-26T09:35:57.816Z,43.01
2023-03-26T09:38:47.682Z,39.03
2023-03-26T09:41:47.965Z,44.03
2023-03-26T09:45:12.597Z,42.59
2023-03-26T09:48:35.504Z,43.72
2023-03-26T09:51:50.019Z,44.64
2023-03-26T09:55:10.087Z,45.42
2023-03-26T09:58:19.441Z,43.62
2023-03-26T10:01:13.694Z,43.40
2023-03-26T10:04:40.616Z,43.99
2023-03-26T10:07:46.700Z,45.37
2023-03-26T10:10:46.665Z,46.33
2023-03-26T10:13:39.320Z,46.17
2023-03-26T10:16:35.803Z,45.79
2023-03-26T10:19:45.895Z,46.26
2023-03-26T10:22:46.248Z,44.50
2023-03-26T10:26:05.492Z,44.67
2023-03-26T10:29:17.003Z,45.08
2023-03-26T10:32:20.786Z,46.81
2023-03-26T10:35:28.700Z,47.00
2023-03-26T10:38:29.630Z,43.80
2023-03-26T10:41:23.720Z,46.97
2023-03-26T10:44:44.346Z,45.17
2023-03-26T10:47:57.537Z,44.74
2023-03-26T10:50:57.760Z,42.84
2023-03-26T10:53:53.304Z,46.60
2023-03-26T10:56:45.978Z,48.56
2023-03-26T10:59:36.550Z,49.06
2023-03-26T11:02:35.656Z,49.50
2023-03-26T11:05:35.912Z,48.30
2023-03-26T11:08:36.744Z,48.30
2023-03-26T11:11:31.444Z,47.08
2023-03-26T11:14:34.318Z,48.03
2023-03-26T11:17:40.690Z,46.69
2023-03-26T11:20:38.334Z,45.90
2023-03-26T11:23:38.668Z,43.26
2023-03-26T11:26:32.248Z,42.90
2023-03-26T11:29:33.601Z,42.74
2023-03-26T11:32:25.057Z,40.31
2023-03-26T11:35:18.032Z,34.89
2023-03-26T11:38:30.557Z,28.80
2023-03-26T11:41:23.026Z,26.54
2023-03-26T11:44:21.932Z,25.16
2023-03-26T11:47:13.467Z,24.13
2023-03-26T11:50:05.190Z,22.83
2023-03-26T11:52:50.067Z,21.71
2023-03-26T11:55:35.861Z,20.79
2023-03-26T11:58:32.057Z,20.66
2023-03-26T12:01:23.878Z,20.12
2023-03-26T12:04:14.637Z,19.74
2023-03-26T12:07:06.506Z,19.65
2023-03-26T12:09:56.666Z,19.22
2023-03-26T12:12:45.421Z,19.13
2023-03-26T12:15:33.046Z,19.22
2023-03-26T12:18:29.247Z,19.03
2023-03-26T12:21:17.670Z,18.82
2023-03-26T12:24:06.048Z,18.71
2023-03-26T12:27:02.817Z,18.67
2023-03-26T12:30:03.012Z,18.56
2023-03-26T12:32:53.089Z,18.39
2023-03-26T12:35:41.567Z,18.26
2023-03-26T12:38:33.556Z,18.08
2023-03-26T12:43:40.263Z,18.20
2023-03-26T12:44:49.866Z,18.23
2023-03-26T12:47:58.515Z,18.06
2023-03-26T12:51:01.296Z,18.06
2023-03-26T12:54:00.730Z,18.08
2023-03-26T12:57:12.132Z,17.95
2023-03-26T13:00:31.039Z,17.61
2023-03-26T13:03:36.633Z,17.70
2023-03-26T13:07:01.735Z,17.78
2023-03-26T13:10:00.732Z,17.60
2023-03-26T13:12:54.704Z,17.27
2023-03-26T13:15:46.621Z,17.40
2023-03-26T13:18:46.322Z,17.50
2023-03-26T13:21:52.314Z,17.53
2023-03-26T13:24:51.667Z,17.50
2023-03-26T13:27:48.905Z,17.31
2023-03-26T13:30:39.706Z,17.39
2023-03-26T13:33:38.199Z,17.36
2023-03-26T13:36:29.543Z,17.52
2023-03-26T13:39:28.992Z,17.18
2023-03-26T13:42:27.025Z,17.41
2023-03-26T13:45:23.684Z,17.33
2023-03-26T13:48:17.013Z,17.28
2023-03-26T13:51:13.420Z,17.34
2023-03-26T13:54:04.427Z,17.30
2023-03-26T13:57:04.584Z,17.25
2023-03-26T13:59:55.013Z,17.15
2023-03-26T14:02:45.005Z,17.13
2023-03-26T14:05:39.541Z,17.07
2023-03-26T14:08:31.760Z,16.75
2023-03-26T14:11:22.929Z,16.78
2023-03-26T14:14:13.266Z,16.72
2023-03-26T14:17:04.184Z,16.73
2023-03-26T14:20:35.178Z,16.72
2023-03-26T14:23:48.962Z,16.76
2023-03-26T14:26:55.440Z,16.67
2023-03-26T14:30:02.305Z,16.72
2023-03-26T14:33:04.604Z,16.66
2023-03-26T14:36:00.126Z,16.67
2023-03-26T14:39:17.100Z,16.67
2023-03-26T14:42:11.234Z,16.60
2023-03-26T14:45:24.520Z,16.53
2023-03-26T14:48:40.229Z,16.47
2023-03-26T14:51:43.142Z,16.31
2023-03-26T14:54:34.743Z,16.33
2023-03-26T14:57:54.883Z,16.30
2023-03-26T15:01:15.771Z,16.29
2023-03-26T15:04:49.094Z,16.21
2023-03-26T15:08:08.262Z,16.13
2023-03-26T15:11:13.783Z,16.15
2023-03-26T15:14:43.065Z,16.11
2023-03-26T15:17:58.685Z,16.07
2023-03-26T15:21:27.545Z,16.04
2023-03-26T15:25:02.760Z,15.95
2023-03-26T15:28:27.363Z,15.93
2023-03-26T15:31:25.616Z,15.86
2023-03-26T15:34:40.068Z,15.78
2023-03-26T15:38:14.854Z,15.65
2023-03-26T15:41:12.561Z,15.57
2023-03-26T15:44:40.994Z,15.44
2023-03-26T15:47:51.760Z,15.32
2023-03-26T15:50:54.630Z,15.25
2023-03-26T15:53:49.630Z,15.15
2023-03-26T15:57:01.077Z,15.13
2023-03-26T15:59:58.150Z,15.18
2023-03-26T16:02:54.548Z,15.12
2023-03-26T16:06:01.207Z,15.08
2023-03-26T16:08:59.104Z,14.97
2023-03-26T16:11:55.076Z,14.83
2023-03-26T16:14:45.495Z,14.78
2023-03-26T16:17:54.137Z,14.70
2023-03-26T16:20:50.996Z,14.67
2023-03-26T16:23:56.175Z,14.49
2023-03-26T16:26:50.543Z,14.42
2023-03-26T16:29:38.496Z,14.40
2023-03-26T16:32:31.210Z,14.21
2023-03-26T16:35:53.780Z,14.20
2023-03-26T16:39:04.774Z,14.12
2023-03-26T16:42:06.879Z,13.93
2023-03-26T16:45:00.316Z,13.83
2023-03-26T16:47:53.305Z,13.76
2023-03-26T16:50:55.000Z,13.70
2023-03-26T16:53:47.106Z,13.65
2023-03-26T16:56:44.412Z,13.54
2023-03-26T17:00:05.421Z,13.52
2023-03-26T17:03:02.517Z,13.43
2023-03-26T17:06:08.113Z,13.30
2023-03-26T17:09:06.999Z,13.23
2023-03-26T17:12:05.013Z,13.37
2023-03-26T17:15:09.045Z,13.29
2023-03-26T17:18:31.914Z,13.33
2023-03-26T17:21:24.390Z,13.31
2023-03-26T17:24:20.072Z,13.29
2023-03-26T17:27:19.422Z,13.20
2023-03-26T17:30:26.809Z,13.12
2023-03-26T17:33:24.090Z,12.98
2023-03-26T17:36:44.432Z,12.93
2023-03-26T17:40:15.023Z,12.84
2023-03-26T17:43:11.997Z,12.71
2023-03-26T17:46:03.669Z,12.73
2023-03-26T17:48:56.723Z,12.63
2023-03-26T17:51:49.624Z,12.57
2023-03-26T17:54:36.444Z,12.50
2023-03-26T17:57:28.996Z,12.41
2023-03-26T18:00:21.140Z,12.37
2023-03-26T18:03:16.889Z,12.29
2023-03-26T18:06:14.480Z,12.22
2023-03-26T18:09:18.666Z,12.04
2023-03-26T18:12:26.476Z,11.90
2023-03-26T18:15:31.809Z,11.89
2023-03-26T18:18:23.246Z,11.88
2023-03-26T18:21:10.201Z,11.81
2023-03-26T18:23:59.533Z,11.80
2023-03-26T18:26:50.012Z,11.80
2023-03-26T18:29:38.403Z,11.81
2023-03-26T18:32:32.440Z,11.71
2023-03-26T18:35:21.612Z,11.57
2023-03-26T18:38:11.727Z,11.50
2023-03-26T18:40:58.492Z,11.44
2023-03-26T18:43:46.220Z,11.42
2023-03-26T18:46:33.591Z,11.38
2023-03-26T18:49:19.558Z,11.22
2023-03-26T18:52:06.002Z,11.20
2023-03-26T18:54:53.820Z,11.09
2023-03-26T18:57:37.970Z,11.04
2023-03-26T19:00:28.771Z,11.09
2023-03-26T19:03:15.919Z,11.00
2023-03-26T19:06:02.601Z,11.07
2023-03-26T19:08:48.336Z,11.07
2023-03-26T19:11:42.272Z,10.98
2023-03-26T19:14:29.757Z,11.02
2023-03-26T19:17:16.502Z,10.86
2023-03-26T19:20:08.753Z,10.76
2023-03-26T19:22:54.751Z,10.76
2023-03-26T19:25:43.673Z,10.78
2023-03-26T19:28:34.930Z,10.68
2023-03-26T19:31:32.418Z,10.61
2023-03-26T19:34:27.617Z,10.45
2023-03-26T19:37:22.146Z,10.44
2023-03-26T19:40:21.512Z,10.33
2023-03-26T19:43:16.176Z,10.31
2023-03-26T19:46:03.366Z,10.27
2023-03-26T19:48:53.068Z,10.23
2023-03-26T19:51:42.930Z,10.23
2023-03-26T19:54:32.168Z,10.25
2023-03-26T19:57:17.913Z,10.18
2023-03-26T20:00:14.510Z,10.13
2023-03-26T20:03:05.768Z,10.05
2023-03-26T20:05:50.305Z,10.07
2023-03-26T20:08:35.019Z,10.05
2023-03-26T20:11:23.674Z,9.98
2023-03-26T20:14:14.805Z,9.97
2023-03-26T20:16:59.054Z,9.96
2023-03-26T20:22:47.643Z,10.01
2023-03-26T20:25:35.314Z,10.00
2023-03-26T20:28:20.655Z,9.80
2023-03-26T20:31:04.379Z,9.78
2023-03-26T20:33:48.455Z,9.82
2023-03-26T20:36:35.357Z,9.89
2023-03-26T20:39:19.730Z,9.85
2023-03-26T20:42:05.082Z,9.93
2023-03-26T20:44:48.560Z,9.92
2023-03-26T20:47:34.485Z,9.98
2023-03-26T20:50:19.027Z,9.97
2023-03-26T20:53:03.106Z,9.96
2023-03-26T20:55:52.793Z,10.00
2023-03-26T20:58:40.926Z,9.95
2023-03-26T21:01:25.126Z,9.87
2023-03-26T21:04:10.227Z,9.83
2023-03-26T21:07:06.978Z,9.79
2023-03-26T21:09:58.124Z,9.78
2023-03-26T21:12:49.339Z,9.78
2023-03-26T21:15:35.265Z,9.76
2023-03-26T21:18:21.240Z,9.77
2023-03-26T21:21:21.825Z,9.67
2023-03-26T21:24:18.744Z,9.70
2023-03-26T21:27:15.864Z,9.70
2023-03-26T21:30:04.311Z,9.67
2023-03-26T21:32:55.584Z,9.48
2023-03-26T21:35:42.538Z,9.49
2023-03-26T21:38:35.366Z,9.42
2023-03-26T21:41:38.852Z,9.27
2023-03-26T21:44:31.909Z,9.03
2023-03-26T21:47:23.046Z,8.93
2023-03-26T21:50:16.064Z,8.64
2023-03-26T21:53:06.674Z,8.47
2023-03-26T21:56:09.840Z,8.50
2023-03-26T21:59:04.581Z,8.44
2023-03-26T22:02:04.051Z,8.40
2023-03-26T22:04:53.690Z,8.35
2023-03-26T22:07:57.646Z,8.28
2023-03-26T22:10:44.764Z,8.17
2023-03-26T22:13:37.633Z,8.20
2023-03-26T22:16:27.500Z,8.20
2023-03-26T22:19:12.804Z,8.21
2023-03-26T22:22:04.284Z,8.14
2023-03-26T22:25:00.579Z,8.29
2023-03-26T22:27:47.356Z,8.39
2023-03-26T22:30:32.070Z,8.49
2023-03-26T22:33:27.524Z,8.34
2023-03-26T22:36:23.301Z,8.52
2023-03-26T22:39:17.701Z,8.50
2023-03-26T22:42:12.502Z,8.52
2023-03-26T22:45:02.506Z,8.44
2023-03-26T22:47:53.068Z,8.33
2023-03-26T22:51:03.216Z,8.26
2023-03-26T22:53:57.059Z,8.14
2023-03-26T22:56:48.314Z,7.92
2023-03-26T22:59:40.909Z,8.06
2023-03-26T23:02:30.940Z,7.92
2023-03-26T23:05:20.013Z,8.02
2023-03-26T23:08:15.044Z,8.08
2023-03-26T23:11:06.034Z,8.13
2023-03-26T23:13:57.331Z,8.08
2023-03-26T23:16:51.293Z,8.15
2023-03-26T23:19:37.771Z,8.21
2023-03-26T23:22:22.828Z,8.32
2023-03-26T23:25:12.270Z,8.27
2023-03-26T23:28:01.456Z,8.31
2023-03-26T23:30:49.824Z,8.26
2023-03-26T23:33:39.404Z,8.40
2023-03-26T23:36:29.946Z,8.42
2023-03-26T23:39:21.294Z,8.43
2023-03-26T23:42:17.608Z,8.51
2023-03-26T23:45:17.891Z,8.49
2023-03-26T23:48:06.548Z,8.49
2023-03-26T23:51:03.282Z,8.49
2023-03-26T23:53:59.947Z,8.40
2023-03-26T23:56:49.837Z,8.30
2023-03-26T23:59:42.751Z,8.23
